Atlantic Island — C4VM2 — position and weather

sailwx.info

Track history (hours):
 
Tides and Currents Weather Stations Pressure Air Temp Water Temp Dewpoint Dewpoint Depression Visibility Wind Speed Wind Dir Waves Ship Positions

Atlantic Island

Last reported at 2017-Jun-26 16:33 UTC. Time now 2017-Jun-26 18:58 UTC.
Position N 38°31' W 008°52'.

Length 95 m; draft 3.8 m.

Type: Cargo ship. MMSI: 210754000.

Date/timePositionNaut miles runAvg speedWind from/ knotsBaromVisibWave heightAir tempDewpointWater temp
2017-Jun-26 16:33N 38°31' W 008°52'0 0.0
2017-Jun-26 16:27N 38°31' W 008°52'0 0.0
2017-Jun-26 14:48N 38°31' W 008°52'0 0.0
2017-Jun-26 14:24N 38°31' W 008°52'0 0.0
2017-Jun-26 12:36N 38°31' W 008°52'0 0.0
2017-Jun-26 12:12N 38°31' W 008°52'0 0.0
2017-Jun-26 12:00N 38°31' W 008°52'0 0.0
2017-Jun-26 11:31N 38°31' W 008°52'1 1.3
2017-Jun-26 11:01N 38°31' W 008°53'5 9.8
2017-Jun-26 10:31N 38°28' W 008°58'4 8.3
2017-Jun-26 10:00N 38°24' W 008°60'2 3.7
2017-Jun-26 09:31N 38°22' W 008°60'0 0.8
2017-Jun-26 09:01N 38°22' W 008°60'1 1.4
2017-Jun-26 08:31N 38°21' W 009°00'1 2.4
2017-Jun-26 08:00N 38°20' W 009°01'2 4.5
2017-Jun-26 07:30N 38°18' W 009°01'4 7.1
2017-Jun-26 07:00N 38°14' W 009°02'4 8.0
2017-Jun-26 06:31N 38°10' W 009°03'4 8.4
2017-Jun-26 06:01N 38°06' W 009°04'510.6
2017-Jun-26 05:31N 38°01' W 009°06'510.4
2017-Jun-26 05:00N 37°56' W 009°07'510.2
2017-Jun-26 04:31N 37°51' W 009°08'510.3
2017-Jun-26 04:01N 37°46' W 009°10'510.0
2017-Jun-26 03:30N 37°41' W 009°11'5 9.9
2017-Jun-26 03:00N 37°36' W 009°12'10 9.4
2017-Jun-26 01:57N 37°26' W 009°14'11 9.6
2017-Jun-26 00:52N 37°16' W 009°17'5 9.6
2017-Jun-26 00:18N 37°11' W 009°19'4 9.3
2017-Jun-25 23:53N 37°07' W 009°20'4 9.3
2017-Jun-25 23:28N 37°03' W 009°20'7 8.8
2017-Jun-25 22:41N 36°56' W 009°20'3 9.0
2017-Jun-25 22:23N 36°54' W 009°19'4 9.0
2017-Jun-25 21:58N 36°51' W 009°16'5 8.9
2017-Jun-25 21:23N 36°47' W 009°12'3 8.7
2017-Jun-25 21:01N 36°45' W 009°09'4 8.7
2017-Jun-25 20:31N 36°43' W 009°04'4 7.8
2017-Jun-25 20:00N 36°41' W 008°60'4 8.9
2017-Jun-25 19:31N 36°37' W 008°59'4 9.0
2017-Jun-25 19:01N 36°32' W 008°59'5 9.6
2017-Jun-25 18:30N 36°27' W 008°58'5 9.7
2017-Jun-25 18:00N 36°23' W 008°58'5 9.8
2017-Jun-25 17:31N 36°18' W 008°58'5 9.8
2017-Jun-25 17:00N 36°13' W 008°57'5 9.6
2017-Jun-25 16:27N 36°07' W 008°57'5 9.4
2017-Jun-25 15:53N 36°02' W 008°56'52 8.7
2017-Jun-25 09:56N 35°11' W 008°51'70 9.0
2017-Jun-25 02:08N 34°01' W 008°44'8 8.6
2017-Jun-25 01:15N 33°53' W 008°44'45 4.2
2017-Jun-24 14:23N 33°08' W 008°37'0 0.0
2017-Jun-23 05:16N 33°08' W 008°37'  
2017-Jun-17 19:57N 35°02' W 008°51'4 8.9
2017-Jun-17 19:30N 35°06' W 008°51'4 8.9
2017-Jun-17 19:00N 35°10' W 008°51'4 8.8
2017-Jun-17 18:30N 35°15' W 008°51'4 8.7
2017-Jun-17 18:00N 35°19' W 008°51'4 8.8
2017-Jun-17 17:30N 35°24' W 008°51'4 8.8
2017-Jun-17 17:00N 35°28' W 008°51'4 8.9
2017-Jun-17 16:30N 35°32' W 008°51'4 8.7
2017-Jun-17 16:00N 35°37' W 008°51'4 8.5
2017-Jun-17 15:30N 35°41' W 008°50'4 8.7
2017-Jun-17 15:00N 35°45' W 008°50'4 8.4
2017-Jun-17 14:29N 35°50' W 008°50'16 8.1
2017-Jun-17 12:28N 36°05' W 008°57'4 8.2
2017-Jun-17 12:00N 36°09' W 008°57'12 8.0
2017-Jun-17 10:27N 36°21' W 008°60'4 8.1
2017-Jun-17 09:59N 36°24' W 009°01'4 8.2
2017-Jun-17 09:30N 36°28' W 009°03'17 8.2
2017-Jun-17 07:24N 36°37' W 009°21'4 8.3
2017-Jun-17 06:59N 36°40' W 009°24'4 8.3
2017-Jun-17 06:30N 36°43' W 009°27'4 8.6
2017-Jun-17 06:00N 36°46' W 009°31'4 8.7
2017-Jun-17 05:30N 36°50' W 009°33'9 9.1
2017-Jun-17 04:32N 36°59' W 009°35'1 9.6
2017-Jun-17 04:29N 36°60' W 009°35'6 9.3
2017-Jun-17 03:50N 37°06' W 009°33'3 9.2
2017-Jun-17 03:30N 37°08' W 009°32'5 9.1
2017-Jun-17 03:00N 37°13' W 009°30'5 9.1
2017-Jun-17 02:30N 37°17' W 009°28'5 9.4
2017-Jun-17 02:00N 37°21' W 009°26'5 9.4
2017-Jun-17 01:30N 37°26' W 009°24'5 9.1
2017-Jun-17 01:00N 37°30' W 009°23'5 9.3
2017-Jun-17 00:30N 37°35' W 009°21'5 9.5
2017-Jun-17 00:00N 37°39' W 009°19'5 9.3
2017-Jun-16 23:30N 37°43' W 009°17'5 9.4
2017-Jun-16 23:00N 37°48' W 009°15'5 9.3
2017-Jun-16 22:30N 37°52' W 009°13'4 9.0
2017-Jun-16 22:00N 37°57' W 009°12'4 9.0
2017-Jun-16 21:30N 38°01' W 009°10'5 9.0
2017-Jun-16 21:00N 38°05' W 009°08'5 9.2
2017-Jun-16 20:30N 38°09' W 009°06'5 9.7
2017-Jun-16 20:00N 38°14' W 009°05'5 9.7
2017-Jun-16 19:30N 38°19' W 009°03'5 9.5
2017-Jun-16 19:00N 38°23' W 009°01'5 9.4
2017-Jun-16 18:30N 38°27' W 008°58'4 7.6
2017-Jun-16 18:00N 38°30' W 008°55'2 4.0
2017-Jun-16 17:30N 38°31' W 008°52'0 0.0
2017-Jun-16 17:00N 38°31' W 008°52'  
Track history (hours):
 
Tides and Currents Weather Stations Pressure Air Temp Water Temp Dewpoint Dewpoint Depression Visibility Wind Speed Wind Dir Waves Ship Positions

Atlantic Island

Last reported at 2017-Jun-26 16:33 UTC. Time now 2017-Jun-26 18:58 UTC.
Position N 38°31' W 008°52'.

Length 95 m; draft 3.8 m.

Type: Cargo ship. MMSI: 210754000.

Date/timePositionNaut miles runAvg speedWind from/ knotsBaromVisibWave heightAir tempDewpointWater temp
2017-Jun-26 16:33N 38°31' W 008°52'0 0.0
2017-Jun-26 16:27N 38°31' W 008°52'0 0.0
2017-Jun-26 14:48N 38°31' W 008°52'0 0.0
2017-Jun-26 14:24N 38°31' W 008°52'0 0.0
2017-Jun-26 12:36N 38°31' W 008°52'0 0.0
2017-Jun-26 12:12N 38°31' W 008°52'0 0.0
2017-Jun-26 12:00N 38°31' W 008°52'0 0.0
2017-Jun-26 11:31N 38°31' W 008°52'1 1.3
2017-Jun-26 11:01N 38°31' W 008°53'5 9.8
2017-Jun-26 10:31N 38°28' W 008°58'4 8.3
2017-Jun-26 10:00N 38°24' W 008°60'2 3.7
2017-Jun-26 09:31N 38°22' W 008°60'0 0.8
2017-Jun-26 09:01N 38°22' W 008°60'1 1.4
2017-Jun-26 08:31N 38°21' W 009°00'1 2.4
2017-Jun-26 08:00N 38°20' W 009°01'2 4.5
2017-Jun-26 07:30N 38°18' W 009°01'4 7.1
2017-Jun-26 07:00N 38°14' W 009°02'4 8.0
2017-Jun-26 06:31N 38°10' W 009°03'4 8.4
2017-Jun-26 06:01N 38°06' W 009°04'510.6
2017-Jun-26 05:31N 38°01' W 009°06'510.4
2017-Jun-26 05:00N 37°56' W 009°07'510.2
2017-Jun-26 04:31N 37°51' W 009°08'510.3
2017-Jun-26 04:01N 37°46' W 009°10'510.0
2017-Jun-26 03:30N 37°41' W 009°11'5 9.9
2017-Jun-26 03:00N 37°36' W 009°12'10 9.4
2017-Jun-26 01:57N 37°26' W 009°14'11 9.6
2017-Jun-26 00:52N 37°16' W 009°17'5 9.6
2017-Jun-26 00:18N 37°11' W 009°19'4 9.3
2017-Jun-25 23:53N 37°07' W 009°20'4 9.3
2017-Jun-25 23:28N 37°03' W 009°20'7 8.8
2017-Jun-25 22:41N 36°56' W 009°20'3 9.0
2017-Jun-25 22:23N 36°54' W 009°19'4 9.0
2017-Jun-25 21:58N 36°51' W 009°16'5 8.9
2017-Jun-25 21:23N 36°47' W 009°12'3 8.7
2017-Jun-25 21:01N 36°45' W 009°09'4 8.7
2017-Jun-25 20:31N 36°43' W 009°04'4 7.8
2017-Jun-25 20:00N 36°41' W 008°60'4 8.9
2017-Jun-25 19:31N 36°37' W 008°59'4 9.0
2017-Jun-25 19:01N 36°32' W 008°59'5 9.6
2017-Jun-25 18:30N 36°27' W 008°58'5 9.7
2017-Jun-25 18:00N 36°23' W 008°58'5 9.8
2017-Jun-25 17:31N 36°18' W 008°58'5 9.8
2017-Jun-25 17:00N 36°13' W 008°57'5 9.6
2017-Jun-25 16:27N 36°07' W 008°57'5 9.4
2017-Jun-25 15:53N 36°02' W 008°56'52 8.7
2017-Jun-25 09:56N 35°11' W 008°51'70 9.0
2017-Jun-25 02:08N 34°01' W 008°44'8 8.6
2017-Jun-25 01:15N 33°53' W 008°44'45 4.2
2017-Jun-24 14:23N 33°08' W 008°37'0 0.0
2017-Jun-23 05:16N 33°08' W 008°37'  
2017-Jun-17 19:57N 35°02' W 008°51'4 8.9
2017-Jun-17 19:30N 35°06' W 008°51'4 8.9
2017-Jun-17 19:00N 35°10' W 008°51'4 8.8
2017-Jun-17 18:30N 35°15' W 008°51'4 8.7
2017-Jun-17 18:00N 35°19' W 008°51'4 8.8
2017-Jun-17 17:30N 35°24' W 008°51'4 8.8
2017-Jun-17 17:00N 35°28' W 008°51'4 8.9
2017-Jun-17 16:30N 35°32' W 008°51'4 8.7
2017-Jun-17 16:00N 35°37' W 008°51'4 8.5
2017-Jun-17 15:30N 35°41' W 008°50'4 8.7
2017-Jun-17 15:00N 35°45' W 008°50'4 8.4
2017-Jun-17 14:29N 35°50' W 008°50'16 8.1
2017-Jun-17 12:28N 36°05' W 008°57'4 8.2
2017-Jun-17 12:00N 36°09' W 008°57'12 8.0
2017-Jun-17 10:27N 36°21' W 008°60'4 8.1
2017-Jun-17 09:59N 36°24' W 009°01'4 8.2
2017-Jun-17 09:30N 36°28' W 009°03'17 8.2
2017-Jun-17 07:24N 36°37' W 009°21'4 8.3
2017-Jun-17 06:59N 36°40' W 009°24'4 8.3
2017-Jun-17 06:30N 36°43' W 009°27'4 8.6
2017-Jun-17 06:00N 36°46' W 009°31'4 8.7
2017-Jun-17 05:30N 36°50' W 009°33'9 9.1
2017-Jun-17 04:32N 36°59' W 009°35'1 9.6
2017-Jun-17 04:29N 36°60' W 009°35'6 9.3
2017-Jun-17 03:50N 37°06' W 009°33'3 9.2
2017-Jun-17 03:30N 37°08' W 009°32'5 9.1
2017-Jun-17 03:00N 37°13' W 009°30'5 9.1
2017-Jun-17 02:30N 37°17' W 009°28'5 9.4
2017-Jun-17 02:00N 37°21' W 009°26'5 9.4
2017-Jun-17 01:30N 37°26' W 009°24'5 9.1
2017-Jun-17 01:00N 37°30' W 009°23'5 9.3
2017-Jun-17 00:30N 37°35' W 009°21'5 9.5
2017-Jun-17 00:00N 37°39' W 009°19'5 9.3
2017-Jun-16 23:30N 37°43' W 009°17'5 9.4
2017-Jun-16 23:00N 37°48' W 009°15'5 9.3
2017-Jun-16 22:30N 37°52' W 009°13'4 9.0
2017-Jun-16 22:00N 37°57' W 009°12'4 9.0
2017-Jun-16 21:30N 38°01' W 009°10'5 9.0
2017-Jun-16 21:00N 38°05' W 009°08'5 9.2
2017-Jun-16 20:30N 38°09' W 009°06'5 9.7
2017-Jun-16 20:00N 38°14' W 009°05'5 9.7
2017-Jun-16 19:30N 38°19' W 009°03'5 9.5
2017-Jun-16 19:00N 38°23' W 009°01'5 9.4
2017-Jun-16 18:30N 38°27' W 008°58'4 7.6
2017-Jun-16 18:00N 38°30' W 008°55'2 4.0
2017-Jun-16 17:30N 38°31' W 008°52'0 0.0
2017-Jun-16 17:00N 38°31' W 008°52'  

Dump ship's entire track history